sensor_id;sensor_type;location;lat;lon;timestamp;P1;durP1;ratioP1;P2;durP2;ratioP2
75342;SDS011;63936;51.006;13.764;2023-05-29T00:00:04;8;;;3;;
75342;SDS011;63936;51.006;13.764;2023-05-29T00:02:03;8;;;3;;
75342;SDS011;63936;51.006;13.764;2023-05-29T00:04:11;8;;;3;;
75342;SDS011;63936;51.006;13.764;2023-05-29T00:06:04;7;;;3;;
75342;SDS011;63936;51.006;13.764;2023-05-29T00:08:03;9;;;4;;
75342;SDS011;63936;51.006;13.764;2023-05-29T00:10:15;8;;;4;;
75342;SDS011;63936;51.006;13.764;2023-05-29T00:12:10;9;;;3;;
75342;SDS011;63936;51.006;13.764;2023-05-29T00:14:06;8;;;3;;
75342;SDS011;63936;51.006;13.764;2023-05-29T00:16:05;10;;;3;;
75342;SDS011;63936;51.006;13.764;2023-05-29T00:18:08;9;;;4;;
75342;SDS011;63936;51.006;13.764;2023-05-29T00:20:05;7;;;3;;
75342;SDS011;63936;51.006;13.764;2023-05-29T00:22:04;7;;;3;;
75342;SDS011;63936;51.006;13.764;2023-05-29T00:24:04;6;;;3;;
75342;SDS011;63936;51.006;13.764;2023-05-29T00:26:07;6;;;3;;
75342;SDS011;63936;51.006;13.764;2023-05-29T00:28:03;7;;;3;;
75342;SDS011;63936;51.006;13.764;2023-05-29T00:30:17;7;;;3;;
75342;SDS011;63936;51.006;13.764;2023-05-29T00:32:04;7;;;3;;
75342;SDS011;63936;51.006;13.764;2023-05-29T00:34:04;7;;;3;;
75342;SDS011;63936;51.006;13.764;2023-05-29T00:36:03;6;;;3;;
75342;SDS011;63936;51.006;13.764;2023-05-29T00:38:05;7;;;3;;
75342;SDS011;63936;51.006;13.764;2023-05-29T00:40:12;8;;;3;;
75342;SDS011;63936;51.006;13.764;2023-05-29T00:42:03;8;;;3;;
75342;SDS011;63936;51.006;13.764;2023-05-29T00:44:04;7;;;3;;
75342;SDS011;63936;51.006;13.764;2023-05-29T00:46:07;8;;;3;;
75342;SDS011;63936;51.006;13.764;2023-05-29T00:48:03;6;;;3;;
75342;SDS011;63936;51.006;13.764;2023-05-29T00:50:08;6;;;3;;
75342;SDS011;63936;51.006;13.764;2023-05-29T00:52:04;7;;;3;;
75342;SDS011;63936;51.006;13.764;2023-05-29T00:54:04;8;;;4;;
75342;SDS011;63936;51.006;13.764;2023-05-29T00:56:05;7;;;4;;
75342;SDS011;63936;51.006;13.764;2023-05-29T00:58:04;7;;;4;;
75342;SDS011;63936;51.006;13.764;2023-05-29T01:00:09;9;;;4;;
75342;SDS011;63936;51.006;13.764;2023-05-29T01:02:15;9;;;4;;
75342;SDS011;63936;51.006;13.764;2023-05-29T01:04:05;7;;;4;;
75342;SDS011;63936;51.006;13.764;2023-05-29T01:06:02;8;;;4;;
75342;SDS011;63936;51.006;13.764;2023-05-29T01:08:03;8;;;3;;
75342;SDS011;63936;51.006;13.764;2023-05-29T01:10:05;8;;;3;;
75342;SDS011;63936;51.006;13.764;2023-05-29T01:12:06;8;;;3;;
75342;SDS011;63936;51.006;13.764;2023-05-29T01:14:03;8;;;3;;
75342;SDS011;63936;51.006;13.764;2023-05-29T01:16:04;7;;;3;;
75342;SDS011;63936;51.006;13.764;2023-05-29T01:18:06;9;;;3;;
75342;SDS011;63936;51.006;13.764;2023-05-29T01:20:07;7;;;3;;
75342;SDS011;63936;51.006;13.764;2023-05-29T01:22:04;8;;;3;;
75342;SDS011;63936;51.006;13.764;2023-05-29T01:24:03;6;;;3;;
75342;SDS011;63936;51.006;13.764;2023-05-29T01:26:07;6;;;3;;
75342;SDS011;63936;51.006;13.764;2023-05-29T01:28:02;7;;;3;;
75342;SDS011;63936;51.006;13.764;2023-05-29T01:30:03;7;;;3;;
75342;SDS011;63936;51.006;13.764;2023-05-29T01:32:02;7;;;3;;
75342;SDS011;63936;51.006;13.764;2023-05-29T01:34:01;7;;;3;;
75342;SDS011;63936;51.006;13.764;2023-05-29T01:36:01;9;;;3;;
75342;SDS011;63936;51.006;13.764;2023-05-29T01:38:02;7;;;3;;
75342;SDS011;63936;51.006;13.764;2023-05-29T01:40:02;8;;;3;;
75342;SDS011;63936;51.006;13.764;2023-05-29T01:42:01;10;;;3;;
75342;SDS011;63936;51.006;13.764;2023-05-29T01:44:02;7;;;3;;
75342;SDS011;63936;51.006;13.764;2023-05-29T01:46:01;8;;;4;;
75342;SDS011;63936;51.006;13.764;2023-05-29T01:48:02;9;;;4;;
75342;SDS011;63936;51.006;13.764;2023-05-29T01:50:03;9;;;4;;
75342;SDS011;63936;51.006;13.764;2023-05-29T01:52:01;6;;;4;;
75342;SDS011;63936;51.006;13.764;2023-05-29T01:54:01;6;;;3;;
75342;SDS011;63936;51.006;13.764;2023-05-29T01:56:02;7;;;3;;
75342;SDS011;63936;51.006;13.764;2023-05-29T01:58:01;8;;;3;;
75342;SDS011;63936;51.006;13.764;2023-05-29T02:00:05;7;;;3;;
75342;SDS011;63936;51.006;13.764;2023-05-29T02:02:05;7;;;3;;
75342;SDS011;63936;51.006;13.764;2023-05-29T02:04:01;7;;;3;;
75342;SDS011;63936;51.006;13.764;2023-05-29T02:06:01;7;;;3;;
75342;SDS011;63936;51.006;13.764;2023-05-29T02:08:02;7;;;3;;
75342;SDS011;63936;51.006;13.764;2023-05-29T02:10:03;7;;;4;;
75342;SDS011;63936;51.006;13.764;2023-05-29T02:12:01;7;;;3;;
75342;SDS011;63936;51.006;13.764;2023-05-29T02:14:01;9;;;4;;
75342;SDS011;63936;51.006;13.764;2023-05-29T02:16:02;7;;;3;;
75342;SDS011;63936;51.006;13.764;2023-05-29T02:18:02;7;;;3;;
75342;SDS011;63936;51.006;13.764;2023-05-29T02:20:03;8;;;3;;
75342;SDS011;63936;51.006;13.764;2023-05-29T02:22:02;7;;;3;;
75342;SDS011;63936;51.006;13.764;2023-05-29T02:24:01;7;;;3;;
75342;SDS011;63936;51.006;13.764;2023-05-29T02:26:02;8;;;3;;
75342;SDS011;63936;51.006;13.764;2023-05-29T02:28:02;7;;;3;;
75342;SDS011;63936;51.006;13.764;2023-05-29T02:30:04;7;;;3;;
75342;SDS011;63936;51.006;13.764;2023-05-29T02:32:02;8;;;4;;
75342;SDS011;63936;51.006;13.764;2023-05-29T02:34:01;8;;;4;;
75342;SDS011;63936;51.006;13.764;2023-05-29T02:36:02;8;;;4;;
75342;SDS011;63936;51.006;13.764;2023-05-29T02:38:02;8;;;4;;
75342;SDS011;63936;51.006;13.764;2023-05-29T02:40:03;8;;;4;;
75342;SDS011;63936;51.006;13.764;2023-05-29T02:42:01;8;;;3;;
75342;SDS011;63936;51.006;13.764;2023-05-29T02:44:03;8;;;4;;
75342;SDS011;63936;51.006;13.764;2023-05-29T02:46:02;7;;;4;;
75342;SDS011;63936;51.006;13.764;2023-05-29T02:48:02;7;;;3;;
75342;SDS011;63936;51.006;13.764;2023-05-29T02:50:02;7;;;3;;
75342;SDS011;63936;51.006;13.764;2023-05-29T02:52:01;9;;;4;;
75342;SDS011;63936;51.006;13.764;2023-05-29T02:54:01;7;;;3;;
75342;SDS011;63936;51.006;13.764;2023-05-29T02:56:02;7;;;3;;
75342;SDS011;63936;51.006;13.764;2023-05-29T02:58:02;8;;;3;;
75342;SDS011;63936;51.006;13.764;2023-05-29T03:00:04;7;;;3;;
75342;SDS011;63936;51.006;13.764;2023-05-29T03:02:02;8;;;3;;
75342;SDS011;63936;51.006;13.764;2023-05-29T03:04:02;8;;;3;;
75342;SDS011;63936;51.006;13.764;2023-05-29T03:06:02;8;;;4;;
75342;SDS011;63936;51.006;13.764;2023-05-29T03:08:02;8;;;4;;
75342;SDS011;63936;51.006;13.764;2023-05-29T03:10:07;9;;;4;;
75342;SDS011;63936;51.006;13.764;2023-05-29T03:12:02;9;;;4;;
75342;SDS011;63936;51.006;13.764;2023-05-29T03:14:01;6;;;3;;
75342;SDS011;63936;51.006;13.764;2023-05-29T03:16:02;6;;;3;;
75342;SDS011;63936;51.006;13.764;2023-05-29T03:18:01;7;;;4;;
75342;SDS011;63936;51.006;13.764;2023-05-29T03:20:03;7;;;3;;
75342;SDS011;63936;51.006;13.764;2023-05-29T03:22:01;9;;;4;;
75342;SDS011;63936;51.006;13.764;2023-05-29T03:24:01;10;;;4;;
75342;SDS011;63936;51.006;13.764;2023-05-29T03:26:01;7;;;4;;
75342;SDS011;63936;51.006;13.764;2023-05-29T03:28:01;7;;;4;;
75342;SDS011;63936;51.006;13.764;2023-05-29T03:30:02;7;;;4;;
75342;SDS011;63936;51.006;13.764;2023-05-29T03:32:01;8;;;4;;
75342;SDS011;63936;51.006;13.764;2023-05-29T03:34:01;12;;;4;;
75342;SDS011;63936;51.006;13.764;2023-05-29T03:36:01;10;;;4;;
75342;SDS011;63936;51.006;13.764;2023-05-29T03:38:01;8;;;4;;
75342;SDS011;63936;51.006;13.764;2023-05-29T03:40:03;8;;;4;;
75342;SDS011;63936;51.006;13.764;2023-05-29T03:42:01;9;;;4;;
75342;SDS011;63936;51.006;13.764;2023-05-29T03:44:01;8;;;4;;
75342;SDS011;63936;51.006;13.764;2023-05-29T03:46:01;9;;;4;;
75342;SDS011;63936;51.006;13.764;2023-05-29T03:48:01;9;;;4;;
75342;SDS011;63936;51.006;13.764;2023-05-29T03:50:03;8;;;4;;
75342;SDS011;63936;51.006;13.764;2023-05-29T03:52:02;8;;;4;;
75342;SDS011;63936;51.006;13.764;2023-05-29T03:54:01;7;;;4;;
75342;SDS011;63936;51.006;13.764;2023-05-29T03:56:01;7;;;4;;
75342;SDS011;63936;51.006;13.764;2023-05-29T03:58:01;7;;;4;;
75342;SDS011;63936;51.006;13.764;2023-05-29T04:00:03;7;;;4;;
75342;SDS011;63936;51.006;13.764;2023-05-29T04:02:03;7;;;4;;
75342;SDS011;63936;51.006;13.764;2023-05-29T04:04:03;7;;;3;;
75342;SDS011;63936;51.006;13.764;2023-05-29T04:06:02;7;;;4;;
75342;SDS011;63936;51.006;13.764;2023-05-29T04:08:02;10;;;5;;
75342;SDS011;63936;51.006;13.764;2023-05-29T04:10:02;10;;;5;;
75342;SDS011;63936;51.006;13.764;2023-05-29T04:12:02;9;;;4;;
75342;SDS011;63936;51.006;13.764;2023-05-29T04:14:02;9;;;4;;
75342;SDS011;63936;51.006;13.764;2023-05-29T04:16:02;8;;;4;;
75342;SDS011;63936;51.006;13.764;2023-05-29T04:18:02;8;;;5;;
75342;SDS011;63936;51.006;13.764;2023-05-29T04:20:03;8;;;4;;
75342;SDS011;63936;51.006;13.764;2023-05-29T04:22:01;7;;;4;;
75342;SDS011;63936;51.006;13.764;2023-05-29T04:24:02;8;;;5;;
75342;SDS011;63936;51.006;13.764;2023-05-29T04:26:02;10;;;5;;
75342;SDS011;63936;51.006;13.764;2023-05-29T04:28:01;10;;;5;;
75342;SDS011;63936;51.006;13.764;2023-05-29T04:30:03;9;;;5;;
75342;SDS011;63936;51.006;13.764;2023-05-29T04:32:01;8;;;5;;
75342;SDS011;63936;51.006;13.764;2023-05-29T04:34:02;9;;;5;;
75342;SDS011;63936;51.006;13.764;2023-05-29T04:36:02;8;;;4;;
75342;SDS011;63936;51.006;13.764;2023-05-29T04:38:02;8;;;5;;
75342;SDS011;63936;51.006;13.764;2023-05-29T04:40:03;8;;;5;;
75342;SDS011;63936;51.006;13.764;2023-05-29T04:42:02;8;;;5;;
75342;SDS011;63936;51.006;13.764;2023-05-29T04:44:02;8;;;5;;
75342;SDS011;63936;51.006;13.764;2023-05-29T04:46:01;9;;;5;;
75342;SDS011;63936;51.006;13.764;2023-05-29T04:48:02;9;;;5;;
75342;SDS011;63936;51.006;13.764;2023-05-29T04:50:04;10;;;5;;
75342;SDS011;63936;51.006;13.764;2023-05-29T04:52:01;9;;;5;;
75342;SDS011;63936;51.006;13.764;2023-05-29T04:54:02;8;;;5;;
75342;SDS011;63936;51.006;13.764;2023-05-29T04:56:01;9;;;5;;
75342;SDS011;63936;51.006;13.764;2023-05-29T04:58:01;8;;;5;;
75342;SDS011;63936;51.006;13.764;2023-05-29T05:00:03;9;;;5;;
75342;SDS011;63936;51.006;13.764;2023-05-29T05:02:02;8;;;5;;
75342;SDS011;63936;51.006;13.764;2023-05-29T05:04:02;8;;;5;;
75342;SDS011;63936;51.006;13.764;2023-05-29T05:06:02;8;;;4;;
75342;SDS011;63936;51.006;13.764;2023-05-29T05:08:01;8;;;4;;
75342;SDS011;63936;51.006;13.764;2023-05-29T05:10:04;7;;;4;;
75342;SDS011;63936;51.006;13.764;2023-05-29T05:12:02;8;;;5;;
75342;SDS011;63936;51.006;13.764;2023-05-29T05:14:01;9;;;5;;
75342;SDS011;63936;51.006;13.764;2023-05-29T05:16:01;9;;;5;;
75342;SDS011;63936;51.006;13.764;2023-05-29T05:18:02;8;;;4;;
75342;SDS011;63936;51.006;13.764;2023-05-29T05:20:04;8;;;4;;
75342;SDS011;63936;51.006;13.764;2023-05-29T05:22:01;9;;;5;;
75342;SDS011;63936;51.006;13.764;2023-05-29T05:24:02;9;;;5;;
75342;SDS011;63936;51.006;13.764;2023-05-29T05:26:02;8;;;5;;
75342;SDS011;63936;51.006;13.764;2023-05-29T05:28:02;8;;;4;;
75342;SDS011;63936;51.006;13.764;2023-05-29T05:30:04;9;;;4;;
75342;SDS011;63936;51.006;13.764;2023-05-29T05:32:01;7;;;5;;
75342;SDS011;63936;51.006;13.764;2023-05-29T05:34:02;7;;;5;;
75342;SDS011;63936;51.006;13.764;2023-05-29T05:36:02;9;;;4;;
75342;SDS011;63936;51.006;13.764;2023-05-29T05:38:01;8;;;4;;
75342;SDS011;63936;51.006;13.764;2023-05-29T05:40:07;9;;;4;;
75342;SDS011;63936;51.006;13.764;2023-05-29T05:42:05;8;;;4;;
75342;SDS011;63936;51.006;13.764;2023-05-29T05:44:02;8;;;4;;
75342;SDS011;63936;51.006;13.764;2023-05-29T05:46:02;8;;;4;;
75342;SDS011;63936;51.006;13.764;2023-05-29T05:48:02;7;;;4;;
75342;SDS011;63936;51.006;13.764;2023-05-29T05:50:02;9;;;4;;
75342;SDS011;63936;51.006;13.764;2023-05-29T05:52:02;9;;;4;;
75342;SDS011;63936;51.006;13.764;2023-05-29T05:54:01;8;;;4;;
75342;SDS011;63936;51.006;13.764;2023-05-29T05:56:02;8;;;4;;
75342;SDS011;63936;51.006;13.764;2023-05-29T05:58:02;8;;;4;;
75342;SDS011;63936;51.006;13.764;2023-05-29T06:00:02;6;;;3;;
75342;SDS011;63936;51.006;13.764;2023-05-29T06:02:01;7;;;4;;
75342;SDS011;63936;51.006;13.764;2023-05-29T06:04:01;9;;;4;;
75342;SDS011;63936;51.006;13.764;2023-05-29T06:06:01;7;;;4;;
75342;SDS011;63936;51.006;13.764;2023-05-29T06:08:01;7;;;4;;
75342;SDS011;63936;51.006;13.764;2023-05-29T06:10:03;7;;;4;;
75342;SDS011;63936;51.006;13.764;2023-05-29T06:12:01;6;;;3;;
75342;SDS011;63936;51.006;13.764;2023-05-29T06:14:02;7;;;4;;
75342;SDS011;63936;51.006;13.764;2023-05-29T06:16:02;7;;;4;;
75342;SDS011;63936;51.006;13.764;2023-05-29T06:18:02;7;;;4;;
75342;SDS011;63936;51.006;13.764;2023-05-29T06:20:04;8;;;4;;
75342;SDS011;63936;51.006;13.764;2023-05-29T06:22:02;8;;;4;;
75342;SDS011;63936;51.006;13.764;2023-05-29T06:24:02;7;;;3;;
75342;SDS011;63936;51.006;13.764;2023-05-29T06:26:01;7;;;4;;
75342;SDS011;63936;51.006;13.764;2023-05-29T06:28:02;7;;;4;;
75342;SDS011;63936;51.006;13.764;2023-05-29T06:30:03;8;;;4;;
75342;SDS011;63936;51.006;13.764;2023-05-29T06:32:02;7;;;3;;
75342;SDS011;63936;51.006;13.764;2023-05-29T06:34:01;7;;;4;;
75342;SDS011;63936;51.006;13.764;2023-05-29T06:36:02;8;;;4;;
75342;SDS011;63936;51.006;13.764;2023-05-29T06:38:02;8;;;4;;
75342;SDS011;63936;51.006;13.764;2023-05-29T06:40:04;7;;;3;;
75342;SDS011;63936;51.006;13.764;2023-05-29T06:42:02;7;;;3;;
75342;SDS011;63936;51.006;13.764;2023-05-29T06:44:01;8;;;4;;
75342;SDS011;63936;51.006;13.764;2023-05-29T06:46:01;7;;;4;;
75342;SDS011;63936;51.006;13.764;2023-05-29T06:48:01;8;;;4;;
75342;SDS011;63936;51.006;13.764;2023-05-29T06:50:03;8;;;3;;
75342;SDS011;63936;51.006;13.764;2023-05-29T06:52:01;7;;;3;;
75342;SDS011;63936;51.006;13.764;2023-05-29T06:54:01;7;;;3;;
75342;SDS011;63936;51.006;13.764;2023-05-29T06:56:01;7;;;3;;
75342;SDS011;63936;51.006;13.764;2023-05-29T06:58:01;8;;;4;;
75342;SDS011;63936;51.006;13.764;2023-05-29T07:00:03;7;;;3;;
75342;SDS011;63936;51.006;13.764;2023-05-29T07:02:01;7;;;3;;
75342;SDS011;63936;51.006;13.764;2023-05-29T07:04:01;7;;;3;;
75342;SDS011;63936;51.006;13.764;2023-05-29T07:06:01;10;;;4;;
75342;SDS011;63936;51.006;13.764;2023-05-29T07:08:01;10;;;4;;
75342;SDS011;63936;51.006;13.764;2023-05-29T07:10:03;9;;;3;;
75342;SDS011;63936;51.006;13.764;2023-05-29T07:12:02;7;;;3;;
75342;SDS011;63936;51.006;13.764;2023-05-29T07:14:02;7;;;3;;
75342;SDS011;63936;51.006;13.764;2023-05-29T07:16:01;8;;;3;;
75342;SDS011;63936;51.006;13.764;2023-05-29T07:18:01;9;;;4;;
75342;SDS011;63936;51.006;13.764;2023-05-29T07:20:03;7;;;3;;
75342;SDS011;63936;51.006;13.764;2023-05-29T07:22:01;7;;;3;;
75342;SDS011;63936;51.006;13.764;2023-05-29T07:24:01;7;;;3;;
75342;SDS011;63936;51.006;13.764;2023-05-29T07:26:01;8;;;3;;
75342;SDS011;63936;51.006;13.764;2023-05-29T07:28:01;5;;;3;;
75342;SDS011;63936;51.006;13.764;2023-05-29T07:30:03;5;;;3;;
75342;SDS011;63936;51.006;13.764;2023-05-29T07:32:01;6;;;2;;
75342;SDS011;63936;51.006;13.764;2023-05-29T07:34:01;6;;;2;;
75342;SDS011;63936;51.006;13.764;2023-05-29T07:36:02;6;;;3;;
75342;SDS011;63936;51.006;13.764;2023-05-29T07:38:02;6;;;3;;
75342;SDS011;63936;51.006;13.764;2023-05-29T07:40:04;6;;;3;;
75342;SDS011;63936;51.006;13.764;2023-05-29T07:42:01;14;;;3;;
75342;SDS011;63936;51.006;13.764;2023-05-29T07:44:01;14;;;3;;
75342;SDS011;63936;51.006;13.764;2023-05-29T07:46:01;7;;;3;;
75342;SDS011;63936;51.006;13.764;2023-05-29T07:48:01;7;;;3;;
75342;SDS011;63936;51.006;13.764;2023-05-29T07:50:02;6;;;3;;
75342;SDS011;63936;51.006;13.764;2023-05-29T07:52:02;5;;;2;;
75342;SDS011;63936;51.006;13.764;2023-05-29T07:54:02;6;;;2;;
75342;SDS011;63936;51.006;13.764;2023-05-29T07:56:01;6;;;2;;
75342;SDS011;63936;51.006;13.764;2023-05-29T07:58:01;8;;;3;;
75342;SDS011;63936;51.006;13.764;2023-05-29T08:00:03;5;;;2;;
75342;SDS011;63936;51.006;13.764;2023-05-29T08:02:02;6;;;2;;
75342;SDS011;63936;51.006;13.764;2023-05-29T08:04:02;5;;;2;;
75342;SDS011;63936;51.006;13.764;2023-05-29T08:06:01;6;;;2;;
75342;SDS011;63936;51.006;13.764;2023-05-29T08:08:01;6;;;3;;
75342;SDS011;63936;51.006;13.764;2023-05-29T08:10:02;6;;;3;;
75342;SDS011;63936;51.006;13.764;2023-05-29T08:12:02;6;;;3;;
75342;SDS011;63936;51.006;13.764;2023-05-29T08:14:02;6;;;3;;
75342;SDS011;63936;51.006;13.764;2023-05-29T08:16:01;6;;;2;;
75342;SDS011;63936;51.006;13.764;2023-05-29T08:18:01;7;;;2;;
75342;SDS011;63936;51.006;13.764;2023-05-29T08:20:03;7;;;2;;
75342;SDS011;63936;51.006;13.764;2023-05-29T08:22:02;6;;;2;;
75342;SDS011;63936;51.006;13.764;2023-05-29T08:24:02;6;;;2;;
75342;SDS011;63936;51.006;13.764;2023-05-29T08:26:01;6;;;2;;
75342;SDS011;63936;51.006;13.764;2023-05-29T08:28:01;6;;;2;;
75342;SDS011;63936;51.006;13.764;2023-05-29T08:30:04;6;;;2;;
75342;SDS011;63936;51.006;13.764;2023-05-29T08:32:01;7;;;2;;
75342;SDS011;63936;51.006;13.764;2023-05-29T08:34:01;7;;;2;;
75342;SDS011;63936;51.006;13.764;2023-05-29T08:36:02;7;;;2;;
75342;SDS011;63936;51.006;13.764;2023-05-29T08:38:02;6;;;2;;
75342;SDS011;63936;51.006;13.764;2023-05-29T08:40:05;6;;;2;;
75342;SDS011;63936;51.006;13.764;2023-05-29T08:42:02;6;;;2;;
75342;SDS011;63936;51.006;13.764;2023-05-29T08:44:02;6;;;2;;
75342;SDS011;63936;51.006;13.764;2023-05-29T08:46:02;7;;;2;;
75342;SDS011;63936;51.006;13.764;2023-05-29T08:48:01;6;;;2;;
75342;SDS011;63936;51.006;13.764;2023-05-29T08:50:03;7;;;2;;
75342;SDS011;63936;51.006;13.764;2023-05-29T08:52:03;6;;;2;;
75342;SDS011;63936;51.006;13.764;2023-05-29T08:54:01;7;;;2;;
75342;SDS011;63936;51.006;13.764;2023-05-29T08:56:01;6;;;2;;
75342;SDS011;63936;51.006;13.764;2023-05-29T08:58:01;6;;;2;;
75342;SDS011;63936;51.006;13.764;2023-05-29T09:00:02;5;;;2;;
75342;SDS011;63936;51.006;13.764;2023-05-29T09:02:01;5;;;2;;
75342;SDS011;63936;51.006;13.764;2023-05-29T09:04:01;5;;;2;;
75342;SDS011;63936;51.006;13.764;2023-05-29T09:06:01;6;;;2;;
75342;SDS011;63936;51.006;13.764;2023-05-29T09:08:01;8;;;2;;
75342;SDS011;63936;51.006;13.764;2023-05-29T09:10:02;8;;;2;;
75342;SDS011;63936;51.006;13.764;2023-05-29T09:12:01;6;;;2;;
75342;SDS011;63936;51.006;13.764;2023-05-29T09:14:02;6;;;2;;
75342;SDS011;63936;51.006;13.764;2023-05-29T09:16:01;6;;;2;;
75342;SDS011;63936;51.006;13.764;2023-05-29T09:18:01;7;;;2;;
75342;SDS011;63936;51.006;13.764;2023-05-29T09:20:03;5;;;2;;
75342;SDS011;63936;51.006;13.764;2023-05-29T09:22:02;6;;;2;;
75342;SDS011;63936;51.006;13.764;2023-05-29T09:24:03;7;;;2;;
75342;SDS011;63936;51.006;13.764;2023-05-29T09:26:02;7;;;2;;
75342;SDS011;63936;51.006;13.764;2023-05-29T09:28:02;6;;;2;;
75342;SDS011;63936;51.006;13.764;2023-05-29T09:30:02;5;;;2;;
75342;SDS011;63936;51.006;13.764;2023-05-29T09:32:01;5;;;2;;
75342;SDS011;63936;51.006;13.764;2023-05-29T09:34:01;5;;;2;;
75342;SDS011;63936;51.006;13.764;2023-05-29T09:36:02;6;;;2;;
75342;SDS011;63936;51.006;13.764;2023-05-29T09:38:01;7;;;2;;
75342;SDS011;63936;51.006;13.764;2023-05-29T09:40:02;6;;;2;;
75342;SDS011;63936;51.006;13.764;2023-05-29T09:42:01;7;;;2;;
75342;SDS011;63936;51.006;13.764;2023-05-29T09:44:01;6;;;2;;
75342;SDS011;63936;51.006;13.764;2023-05-29T09:46:01;6;;;2;;
75342;SDS011;63936;51.006;13.764;2023-05-29T09:48:01;6;;;2;;
75342;SDS011;63936;51.006;13.764;2023-05-29T09:50:04;6;;;2;;
75342;SDS011;63936;51.006;13.764;2023-05-29T09:52:01;6;;;2;;
75342;SDS011;63936;51.006;13.764;2023-05-29T09:54:12;5;;;1;;
75342;SDS011;63936;51.006;13.764;2023-05-29T09:56:01;6;;;2;;
75342;SDS011;63936;51.006;13.764;2023-05-29T09:58:01;5;;;1;;
75342;SDS011;63936;51.006;13.764;2023-05-29T10:00:03;5;;;1;;
75342;SDS011;63936;51.006;13.764;2023-05-29T10:02:02;5;;;1;;
75342;SDS011;63936;51.006;13.764;2023-05-29T10:04:01;8;;;2;;
75342;SDS011;63936;51.006;13.764;2023-05-29T10:06:01;6;;;1;;
75342;SDS011;63936;51.006;13.764;2023-05-29T10:08:01;7;;;3;;
75342;SDS011;63936;51.006;13.764;2023-05-29T10:10:03;5;;;2;;
75342;SDS011;63936;51.006;13.764;2023-05-29T10:12:01;5;;;2;;
75342;SDS011;63936;51.006;13.764;2023-05-29T10:14:01;7;;;1;;
75342;SDS011;63936;51.006;13.764;2023-05-29T10:16:01;5;;;2;;
75342;SDS011;63936;51.006;13.764;2023-05-29T10:18:02;6;;;1;;
75342;SDS011;63936;51.006;13.764;2023-05-29T10:20:04;6;;;2;;
75342;SDS011;63936;51.006;13.764;2023-05-29T10:22:01;5;;;1;;
75342;SDS011;63936;51.006;13.764;2023-05-29T10:24:01;5;;;2;;
75342;SDS011;63936;51.006;13.764;2023-05-29T10:26:02;4;;;1;;
75342;SDS011;63936;51.006;13.764;2023-05-29T10:28:01;5;;;2;;
75342;SDS011;63936;51.006;13.764;2023-05-29T10:30:04;6;;;2;;
75342;SDS011;63936;51.006;13.764;2023-05-29T10:32:05;4;;;1;;
75342;SDS011;63936;51.006;13.764;2023-05-29T10:34:05;4;;;1;;
75342;SDS011;63936;51.006;13.764;2023-05-29T10:36:04;5;;;2;;
75342;SDS011;63936;51.006;13.764;2023-05-29T10:38:02;5;;;2;;
75342;SDS011;63936;51.006;13.764;2023-05-29T10:40:03;5;;;2;;
75342;SDS011;63936;51.006;13.764;2023-05-29T10:42:01;6;;;2;;
75342;SDS011;63936;51.006;13.764;2023-05-29T10:44:01;5;;;1;;
75342;SDS011;63936;51.006;13.764;2023-05-29T10:46:01;5;;;1;;
75342;SDS011;63936;51.006;13.764;2023-05-29T10:48:35;6;;;2;;
75342;SDS011;63936;51.006;13.764;2023-05-29T10:50:03;5;;;2;;
75342;SDS011;63936;51.006;13.764;2023-05-29T10:52:02;5;;;2;;
75342;SDS011;63936;51.006;13.764;2023-05-29T10:54:01;5;;;2;;
75342;SDS011;63936;51.006;13.764;2023-05-29T10:56:02;5;;;2;;
75342;SDS011;63936;51.006;13.764;2023-05-29T10:58:04;6;;;2;;
75342;SDS011;63936;51.006;13.764;2023-05-29T11:00:03;6;;;2;;
75342;SDS011;63936;51.006;13.764;2023-05-29T11:02:01;6;;;2;;
75342;SDS011;63936;51.006;13.764;2023-05-29T11:04:32;7;;;2;;
75342;SDS011;63936;51.006;13.764;2023-05-29T11:06:02;6;;;2;;
75342;SDS011;63936;51.006;13.764;2023-05-29T11:08:02;5;;;2;;
75342;SDS011;63936;51.006;13.764;2023-05-29T11:10:16;5;;;2;;
75342;SDS011;63936;51.006;13.764;2023-05-29T11:12:17;8;;;2;;
75342;SDS011;63936;51.006;13.764;2023-05-29T11:14:02;5;;;2;;
75342;SDS011;63936;51.006;13.764;2023-05-29T11:16:05;6;;;2;;
75342;SDS011;63936;51.006;13.764;2023-05-29T11:18:05;6;;;2;;
75342;SDS011;63936;51.006;13.764;2023-05-29T11:20:03;7;;;2;;
75342;SDS011;63936;51.006;13.764;2023-05-29T11:22:04;6;;;2;;
75342;SDS011;63936;51.006;13.764;2023-05-29T11:24:01;5;;;2;;
75342;SDS011;63936;51.006;13.764;2023-05-29T11:26:01;5;;;2;;
75342;SDS011;63936;51.006;13.764;2023-05-29T11:28:02;5;;;2;;
75342;SDS011;63936;51.006;13.764;2023-05-29T11:30:03;5;;;2;;
75342;SDS011;63936;51.006;13.764;2023-05-29T11:32:01;6;;;2;;
75342;SDS011;63936;51.006;13.764;2023-05-29T11:34:01;6;;;2;;
75342;SDS011;63936;51.006;13.764;2023-05-29T11:36:01;6;;;2;;
75342;SDS011;63936;51.006;13.764;2023-05-29T11:38:01;6;;;2;;
75342;SDS011;63936;51.006;13.764;2023-05-29T11:40:03;6;;;2;;
75342;SDS011;63936;51.006;13.764;2023-05-29T11:42:01;5;;;2;;
75342;SDS011;63936;51.006;13.764;2023-05-29T11:44:02;6;;;2;;
75342;SDS011;63936;51.006;13.764;2023-05-29T11:46:01;6;;;2;;
75342;SDS011;63936;51.006;13.764;2023-05-29T11:48:01;6;;;2;;
75342;SDS011;63936;51.006;13.764;2023-05-29T11:50:01;7;;;2;;
75342;SDS011;63936;51.006;13.764;2023-05-29T11:52:08;6;;;2;;
75342;SDS011;63936;51.006;13.764;2023-05-29T11:54:01;6;;;2;;
75342;SDS011;63936;51.006;13.764;2023-05-29T11:56:08;5;;;2;;
75342;SDS011;63936;51.006;13.764;2023-05-29T11:58:01;6;;;2;;
75342;SDS011;63936;51.006;13.764;2023-05-29T12:00:04;6;;;2;;
75342;SDS011;63936;51.006;13.764;2023-05-29T12:02:02;6;;;2;;
75342;SDS011;63936;51.006;13.764;2023-05-29T12:04:01;5;;;2;;
75342;SDS011;63936;51.006;13.764;2023-05-29T12:06:01;5;;;2;;
75342;SDS011;63936;51.006;13.764;2023-05-29T12:08:01;6;;;2;;
75342;SDS011;63936;51.006;13.764;2023-05-29T12:10:09;5;;;2;;
75342;SDS011;63936;51.006;13.764;2023-05-29T12:12:01;5;;;2;;
75342;SDS011;63936;51.006;13.764;2023-05-29T12:14:01;6;;;2;;
75342;SDS011;63936;51.006;13.764;2023-05-29T12:16:02;6;;;2;;
75342;SDS011;63936;51.006;13.764;2023-05-29T12:18:01;6;;;2;;
75342;SDS011;63936;51.006;13.764;2023-05-29T12:20:03;5;;;2;;
75342;SDS011;63936;51.006;13.764;2023-05-29T12:22:01;6;;;2;;
75342;SDS011;63936;51.006;13.764;2023-05-29T12:24:01;7;;;2;;
75342;SDS011;63936;51.006;13.764;2023-05-29T12:26:02;7;;;2;;
75342;SDS011;63936;51.006;13.764;2023-05-29T12:28:02;6;;;2;;
75342;SDS011;63936;51.006;13.764;2023-05-29T12:30:03;6;;;2;;
75342;SDS011;63936;51.006;13.764;2023-05-29T12:32:01;6;;;2;;
75342;SDS011;63936;51.006;13.764;2023-05-29T12:34:01;7;;;2;;
75342;SDS011;63936;51.006;13.764;2023-05-29T12:36:02;6;;;2;;
75342;SDS011;63936;51.006;13.764;2023-05-29T12:38:02;7;;;2;;
75342;SDS011;63936;51.006;13.764;2023-05-29T12:40:10;7;;;2;;
75342;SDS011;63936;51.006;13.764;2023-05-29T12:42:01;6;;;2;;
75342;SDS011;63936;51.006;13.764;2023-05-29T12:44:02;6;;;2;;
75342;SDS011;63936;51.006;13.764;2023-05-29T12:46:01;6;;;2;;
75342;SDS011;63936;51.006;13.764;2023-05-29T12:48:01;6;;;2;;
75342;SDS011;63936;51.006;13.764;2023-05-29T12:50:18;6;;;2;;
75342;SDS011;63936;51.006;13.764;2023-05-29T12:52:04;6;;;2;;
75342;SDS011;63936;51.006;13.764;2023-05-29T12:54:01;7;;;2;;
75342;SDS011;63936;51.006;13.764;2023-05-29T12:56:01;6;;;2;;
75342;SDS011;63936;51.006;13.764;2023-05-29T12:58:01;7;;;2;;
75342;SDS011;63936;51.006;13.764;2023-05-29T13:00:03;7;;;2;;